Time,TemperatureF,DewpointF,PressureIn,WindDirection,WindDirectionDegrees,WindSpeedMPH,WindSpeedGustMPH,Humidity,HourlyPrecipIn,Conditions,Clouds,dailyrainin,SoftwareType,DateUTC
2013-04-19 00:01:00,74.3,58.1,29.57,SW,225,7.5,12.0,57,0.00,,,0.00,VWS V14.01,2013-04-19 04:01:00,
2013-04-19 00:06:00,74.3,58.1,29.58,South,191,10.5,10.5,57,0.00,,,0.00,VWS V14.01,2013-04-19 04:06:00,
2013-04-19 00:11:00,74.3,58.1,29.57,WSW,244,18.0,18.0,57,0.00,,,0.00,VWS V14.01,2013-04-19 04:11:00,
2013-04-19 00:16:00,74.4,58.2,29.57,SW,230,13.5,13.5,57,0.00,,,0.00,VWS V14.01,2013-04-19 04:16:00,
2013-04-19 00:21:00,74.4,58.2,29.57,SSW,210,13.5,16.5,57,0.00,,,0.00,VWS V14.01,2013-04-19 04:21:00,
2013-04-19 00:26:00,74.3,58.1,29.56,South,181,4.5,6.0,57,0.00,,,0.00,VWS V14.01,2013-04-19 04:26:00,
2013-04-19 00:31:00,74.2,58.5,29.55,WSW,248,6.0,7.5,58,0.00,,,0.00,VWS V14.01,2013-04-19 04:31:00,
2013-04-19 00:36:00,74.0,58.8,29.55,SSW,201,3.0,4.5,59,0.00,,,0.00,VWS V14.01,2013-04-19 04:36:00,
2013-04-19 00:41:00,73.9,58.7,29.55,WSW,243,4.5,4.5,59,0.00,,,0.00,VWS V14.01,2013-04-19 04:41:00,
2013-04-19 00:46:00,73.8,58.6,29.55,SSW,198,4.5,9.0,59,0.00,,,0.00,VWS V14.01,2013-04-19 04:46:00,
2013-04-19 00:51:00,73.7,58.5,29.54,SSW,206,4.5,6.0,59,0.00,,,0.00,VWS V14.01,2013-04-19 04:51:00,
2013-04-19 00:56:00,73.6,58.9,29.53,South,179,16.5,16.5,60,0.00,,,0.00,VWS V14.01,2013-04-19 04:56:00,
2013-04-19 01:01:00,73.6,58.9,29.53,SE,143,7.5,13.5,60,0.00,,,0.00,VWS V14.01,2013-04-19 05:01:00,
2013-04-19 01:06:00,73.5,58.8,29.53,South,188,3.0,12.0,60,0.00,,,0.00,VWS V14.01,2013-04-19 05:06:00,
2013-04-19 01:11:00,73.5,59.2,29.52,ESE,118,9.0,16.5,61,0.00,,,0.00,VWS V14.01,2013-04-19 05:11:00,
2013-04-19 01:16:00,73.6,59.3,29.52,SSW,199,4.5,7.5,61,0.00,,,0.00,VWS V14.01,2013-04-19 05:16:00,
2013-04-19 01:21:00,73.6,59.3,29.52,West,260,4.5,19.5,61,0.00,,,0.00,VWS V14.01,2013-04-19 05:21:00,
2013-04-19 01:26:00,73.7,59.4,29.52,SSW,213,3.0,13.5,61,0.00,,,0.00,VWS V14.01,2013-04-19 05:26:00,
2013-04-19 01:30:00,73.7,59.4,29.51,WSW,240,10.5,10.5,61,0.00,,,0.00,VWS V14.01,2013-04-19 05:30:00,
2013-04-19 01:35:00,73.8,59.5,29.51,SSE,163,7.5,18.0,61,0.00,,,0.00,VWS V14.01,2013-04-19 05:35:00,
2013-04-19 01:40:00,73.7,59.4,29.50,SSW,205,4.5,12.0,61,0.00,,,0.00,VWS V14.01,2013-04-19 05:40:00,
2013-04-19 01:45:00,73.8,59.5,29.50,SSW,202,7.5,12.0,61,0.00,,,0.00,VWS V14.01,2013-04-19 05:45:00,
2013-04-19 01:50:00,73.9,59.6,29.49,SW,219,7.5,18.0,61,0.00,,,0.00,VWS V14.01,2013-04-19 05:50:00,
2013-04-19 01:55:00,73.8,60.0,29.49,SW,226,6.0,9.0,62,0.00,,,0.00,VWS V14.01,2013-04-19 05:55:00,
2013-04-19 02:00:00,73.7,59.9,29.49,SW,220,12.0,13.5,62,0.00,,,0.00,VWS V14.01,2013-04-19 06:00:00,
2013-04-19 02:05:00,73.8,60.0,29.50,SW,216,4.5,7.5,62,0.00,,,0.00,VWS V14.01,2013-04-19 06:05:00,
2013-04-19 02:10:00,73.8,60.0,29.50,SW,215,21.0,21.0,62,0.00,,,0.00,VWS V14.01,2013-04-19 06:10:00,
2013-04-19 02:15:00,73.9,60.1,29.49,WSW,250,1.5,6.0,62,0.00,,,0.00,VWS V14.01,2013-04-19 06:15:00,
2013-04-19 02:20:00,73.9,59.6,29.49,SW,226,12.0,18.0,61,0.00,,,0.00,VWS V14.01,2013-04-19 06:20:00,
2013-04-19 02:25:00,74.0,60.2,29.48,SE,126,3.0,6.0,62,0.00,,,0.00,VWS V14.01,2013-04-19 06:25:00,
2013-04-19 02:30:00,73.9,60.1,29.48,SSW,203,18.0,18.0,62,0.00,,,0.00,VWS V14.01,2013-04-19 06:30:00,
2013-04-19 02:35:00,73.7,60.3,29.48,South,172,13.5,13.5,63,0.00,,,0.00,VWS V14.01,2013-04-19 06:35:00,
2013-04-19 02:40:00,73.6,60.2,29.48,WSW,251,13.5,21.0,63,0.00,,,0.00,VWS V14.01,2013-04-19 06:40:00,
2013-04-19 02:45:00,73.2,61.2,29.48,WSW,239,13.5,22.5,66,0.00,,,0.00,VWS V14.01,2013-04-19 06:45:00,
2013-04-19 02:50:00,72.8,60.8,29.48,South,177,4.5,13.5,66,0.00,,,0.00,VWS V14.01,2013-04-19 06:50:00,
2013-04-19 02:55:00,72.4,61.2,29.48,SW,217,19.5,22.5,68,0.00,,,0.00,VWS V14.01,2013-04-19 06:55:00,
2013-04-19 03:00:00,71.8,61.5,29.48,SSW,201,6.0,13.5,70,0.00,,,0.00,VWS V14.01,2013-04-19 07:00:00,
2013-04-19 03:05:00,70.9,61.8,29.48,South,169,15.0,15.0,73,0.01,,,0.01,VWS V14.01,2013-04-19 07:05:00,
2013-04-19 03:10:00,70.1,61.8,29.47,SW,223,7.5,15.0,75,0.02,,,0.02,VWS V14.01,2013-04-19 07:10:00,
2013-04-19 03:15:00,69.2,62.1,29.47,West,260,3.0,6.0,78,0.03,,,0.03,VWS V14.01,2013-04-19 07:15:00,
2013-04-19 03:20:00,68.8,62.0,29.47,SSW,196,4.5,13.5,79,0.04,,,0.04,VWS V14.01,2013-04-19 07:20:00,
2013-04-19 03:25:00,68.5,62.1,29.46,South,191,3.0,4.5,80,0.05,,,0.05,VWS V14.01,2013-04-19 07:25:00,
2013-04-19 03:30:00,68.0,62.0,29.46,SSW,202,6.0,7.5,81,0.05,,,0.05,VWS V14.01,2013-04-19 07:30:00,
2013-04-19 03:35:00,67.6,61.9,29.45,South,177,12.0,12.0,82,0.06,,,0.06,VWS V14.01,2013-04-19 07:35:00,
2013-04-19 03:40:00,67.3,62.0,29.45,SSW,203,4.5,7.5,83,0.07,,,0.07,VWS V14.01,2013-04-19 07:40:00,
2013-04-19 03:45:00,67.0,62.3,29.45,SW,226,6.0,9.0,85,0.07,,,0.07,VWS V14.01,2013-04-19 07:45:00,
2013-04-19 03:50:00,66.7,62.4,29.44,South,191,6.0,6.0,86,0.09,,,0.09,VWS V14.01,2013-04-19 07:50:00,
2013-04-19 03:55:00,66.5,62.2,29.43,SSW,198,9.0,10.5,86,0.10,,,0.10,VWS V14.01,2013-04-19 07:55:00,
2013-04-19 04:00:00,66.3,62.3,29.43,SW,231,10.5,12.0,87,0.10,,,0.10,VWS V14.01,2013-04-19 08:00:00,
2013-04-19 04:05:00,66.2,62.2,29.42,South,169,10.5,15.0,87,0.11,,,0.12,VWS V14.01,2013-04-19 08:05:00,
2013-04-19 04:10:00,66.1,62.1,29.41,SSE,162,16.5,16.5,87,0.11,,,0.13,VWS V14.01,2013-04-19 08:10:00,
2013-04-19 04:15:00,66.0,62.3,29.41,South,184,12.0,13.5,88,0.10,,,0.13,VWS V14.01,2013-04-19 08:15:00,
2013-04-19 04:20:00,66.0,62.0,29.41,SSW,196,10.5,16.5,87,0.09,,,0.13,VWS V14.01,2013-04-19 08:20:00,
2013-04-19 04:25:00,66.1,62.1,29.40,SSW,210,9.0,19.5,87,0.09,,,0.13,VWS V14.01,2013-04-19 08:25:00,
2013-04-19 04:30:00,66.1,62.5,29.40,SSE,167,21.0,21.0,88,0.09,,,0.14,VWS V14.01,2013-04-19 08:30:00,
2013-04-19 04:35:00,65.9,62.2,29.39,South,182,12.0,16.5,88,0.09,,,0.15,VWS V14.01,2013-04-19 08:35:00,
2013-04-19 04:40:00,65.9,62.2,29.39,SE,128,13.5,13.5,88,0.10,,,0.17,VWS V14.01,2013-04-19 08:40:00,
2013-04-19 04:45:00,65.9,62.6,29.38,ENE,70,19.5,24.0,89,0.11,,,0.18,VWS V14.01,2013-04-19 08:45:00,
2013-04-19 04:50:00,66.0,62.3,29.36,SSE,156,7.5,12.0,88,0.10,,,0.19,VWS V14.01,2013-04-19 08:50:00,
2013-04-19 04:55:00,65.9,62.9,29.44,WSW,249,18.0,21.0,90,0.12,,,0.21,VWS V14.01,2013-04-19 08:55:00,
2013-04-19 05:00:00,65.0,62.6,29.44,WSW,248,16.5,19.5,92,0.28,,,0.38,VWS V14.01,2013-04-19 09:00:00,
2013-04-19 05:05:00,64.5,62.7,29.43,SW,226,10.5,16.5,94,0.37,,,0.49,VWS V14.01,2013-04-19 09:05:00,
2013-04-19 05:10:00,64.3,62.5,29.43,SW,223,19.5,19.5,94,0.38,,,0.51,VWS V14.01,2013-04-19 09:10:00,
2013-04-19 05:15:00,64.1,62.6,29.43,WSW,250,19.5,28.5,95,0.42,,,0.55,VWS V14.01,2013-04-19 09:15:00,
2013-04-19 05:20:00,61.7,58.4,29.45,WSW,249,19.5,25.5,89,0.43,,,0.56,VWS V14.01,2013-04-19 09:20:00,
2013-04-19 05:25:00,58.0,53.8,29.47,West,261,21.0,24.0,86,0.44,,,0.57,VWS V14.01,2013-04-19 09:25:00,
2013-04-19 05:30:00,55.5,52.3,29.49,WNW,284,19.5,21.0,89,0.44,,,0.58,VWS V14.01,2013-04-19 09:30:00,
2013-04-19 05:35:00,54.1,51.2,29.50,WNW,288,27.0,30.0,90,0.44,,,0.59,VWS V14.01,2013-04-19 09:35:00,
2013-04-19 05:40:00,52.8,50.0,29.51,WSW,251,19.5,30.0,90,0.43,,,0.60,VWS V14.01,2013-04-19 09:40:00,
2013-04-19 05:45:00,51.8,49.0,29.49,West,269,18.0,21.0,90,0.45,,,0.63,VWS V14.01,2013-04-19 09:45:00,
2013-04-19 05:50:00,51.2,48.7,29.51,West,278,15.0,15.0,91,0.49,,,0.67,VWS V14.01,2013-04-19 09:50:00,
2013-04-19 05:55:00,50.9,48.7,29.53,West,260,18.0,18.0,92,0.48,,,0.68,VWS V14.01,2013-04-19 09:55:00,
2013-04-19 06:00:00,50.6,48.4,29.53,WNW,284,9.0,10.5,92,0.31,,,0.68,VWS V14.01,2013-04-19 10:00:00,
2013-04-19 06:05:00,50.0,47.5,29.54,WNW,285,13.5,24.0,91,0.21,,,0.69,VWS V14.01,2013-04-19 10:05:00,
2013-04-19 06:10:00,49.3,47.1,29.52,West,279,12.0,12.0,92,0.20,,,0.71,VWS V14.01,2013-04-19 10:10:00,
2013-04-19 06:15:00,49.0,46.8,29.53,North,6,22.5,22.5,92,0.18,,,0.73,VWS V14.01,2013-04-19 10:15:00,
2013-04-19 06:20:00,48.6,46.4,29.55,WNW,288,13.5,16.5,92,0.17,,,0.73,VWS V14.01,2013-04-19 10:20:00,
2013-04-19 06:25:00,48.3,45.8,29.58,WNW,288,13.5,13.5,91,0.16,,,0.73,VWS V14.01,2013-04-19 10:25:00,
2013-04-19 06:30:00,48.0,45.5,29.58,WNW,291,12.0,15.0,91,0.17,,,0.75,VWS V14.01,2013-04-19 10:30:00,
2013-04-19 06:35:00,47.7,45.2,29.56,WNW,285,7.5,7.5,91,0.17,,,0.76,VWS V14.01,2013-04-19 10:35:00,
2013-04-19 06:40:00,47.5,45.3,29.56,WNW,299,6.0,9.0,92,0.18,,,0.78,VWS V14.01,2013-04-19 10:40:00,
2013-04-19 06:45:00,47.4,45.2,29.58,WNW,302,16.5,16.5,92,0.16,,,0.79,VWS V14.01,2013-04-19 10:45:00,
2013-04-19 06:50:00,47.3,45.4,29.58,West,274,15.0,15.0,93,0.12,,,0.79,VWS V14.01,2013-04-19 10:50:00,
2013-04-19 06:55:00,47.3,45.4,29.58,West,281,12.0,12.0,93,0.11,,,0.79,VWS V14.01,2013-04-19 10:55:00,
2013-04-19 07:00:00,47.4,45.5,29.60,West,276,10.5,16.5,93,0.11,,,0.79,VWS V14.01,2013-04-19 11:00:00,
2013-04-19 07:05:00,47.3,45.4,29.59,NW,307,13.5,22.5,93,0.11,,,0.80,VWS V14.01,2013-04-19 11:05:00,
2013-04-19 07:10:00,46.8,44.6,29.60,West,278,21.0,31.5,92,0.10,,,0.81,VWS V14.01,2013-04-19 11:10:00,
2013-04-19 07:15:00,46.5,44.3,29.60,WSW,251,16.5,24.0,92,0.09,,,0.81,VWS V14.01,2013-04-19 11:15:00,
2013-04-19 07:20:00,46.4,44.2,29.60,West,276,22.5,25.5,92,0.08,,,0.81,VWS V14.01,2013-04-19 11:20:00,
2013-04-19 07:25:00,46.3,43.8,29.61,West,272,16.5,24.0,91,0.08,,,0.81,VWS V14.01,2013-04-19 11:25:00,
2013-04-19 07:29:00,46.2,43.7,29.61,WNW,300,27.0,27.0,91,0.07,,,0.81,VWS V14.01,2013-04-19 11:29:00,
2013-04-19 07:34:00,46.1,43.6,29.61,WNW,296,7.5,21.0,91,0.05,,,0.81,VWS V14.01,2013-04-19 11:34:00,
2013-04-19 07:39:00,46.0,43.5,29.62,West,271,13.5,19.5,91,0.03,,,0.81,VWS V14.01,2013-04-19 11:39:00,
2013-04-19 07:44:00,45.9,43.4,29.63,West,263,12.0,13.5,91,0.02,,,0.81,VWS V14.01,2013-04-19 11:44:00,
2013-04-19 07:49:00,45.8,43.3,29.63,WNW,290,10.5,13.5,91,0.02,,,0.81,VWS V14.01,2013-04-19 11:49:00,
2013-04-19 07:54:00,45.6,43.4,29.62,WNW,290,10.5,15.0,92,0.02,,,0.81,VWS V14.01,2013-04-19 11:54:00,
2013-04-19 07:59:00,45.4,43.5,29.63,WNW,288,12.0,15.0,93,0.02,,,0.81,VWS V14.01,2013-04-19 11:59:00,
2013-04-19 08:04:00,45.1,43.2,29.63,WNW,288,19.5,21.0,93,0.01,,,0.81,VWS V14.01,2013-04-19 12:04:00,
2013-04-19 08:09:00,44.8,42.9,29.64,WSW,248,15.0,25.5,93,0.00,,,0.81,VWS V14.01,2013-04-19 12:09:00,
2013-04-19 08:14:00,44.5,42.3,29.64,West,272,21.0,27.0,92,0.00,,,0.81,VWS V14.01,2013-04-19 12:14:00,
2013-04-19 08:19:00,44.4,42.2,29.64,WNW,282,10.5,16.5,92,0.00,,,0.81,VWS V14.01,2013-04-19 12:19:00,
2013-04-19 08:24:00,44.2,42.0,29.65,West,279,19.5,21.0,92,0.00,,,0.81,VWS V14.01,2013-04-19 12:24:00,
2013-04-19 08:29:00,44.1,41.9,29.65,WNW,286,21.0,25.5,92,0.00,,,0.81,VWS V14.01,2013-04-19 12:29:00,
2013-04-19 08:34:00,43.6,41.2,29.65,West,259,24.0,31.5,91,0.00,,,0.81,VWS V14.01,2013-04-19 12:34:00,
2013-04-19 08:39:00,43.2,40.8,29.66,West,274,16.5,16.5,91,0.00,,,0.81,VWS V14.01,2013-04-19 12:39:00,
2013-04-19 08:44:00,42.7,40.3,29.66,WNW,283,19.5,24.0,91,0.00,,,0.81,VWS V14.01,2013-04-19 12:44:00,
2013-04-19 08:49:00,42.4,40.2,29.67,North,10,15.0,15.0,92,0.00,,,0.81,VWS V14.01,2013-04-19 12:49:00,
2013-04-19 08:54:00,42.4,40.5,29.67,West,271,10.5,21.0,93,0.00,,,0.81,VWS V14.01,2013-04-19 12:54:00,
2013-04-19 08:59:00,42.4,40.5,29.67,WSW,246,4.5,12.0,93,0.00,,,0.81,VWS V14.01,2013-04-19 12:59:00,
2013-04-19 09:04:00,42.4,40.5,29.68,WSW,251,13.5,18.0,93,0.00,,,0.81,VWS V14.01,2013-04-19 13:04:00,
2013-04-19 09:09:00,42.5,40.6,29.68,WNW,288,10.5,18.0,93,0.00,,,0.81,VWS V14.01,2013-04-19 13:09:00,
2013-04-19 09:14:00,42.5,40.3,29.68,West,267,9.0,15.0,92,0.00,,,0.81,VWS V14.01,2013-04-19 13:14:00,
2013-04-19 09:19:00,42.6,40.4,29.68,West,267,12.0,12.0,92,0.00,,,0.81,VWS V14.01,2013-04-19 13:19:00,
2013-04-19 09:24:00,42.8,40.4,29.69,West,281,18.0,18.0,91,0.00,,,0.81,VWS V14.01,2013-04-19 13:24:00,
2013-04-19 09:29:00,43.0,40.0,29.70,West,265,13.5,25.5,89,0.00,,,0.81,VWS V14.01,2013-04-19 13:29:00,
2013-04-19 09:34:00,43.2,40.2,29.70,WSW,257,25.5,25.5,89,0.00,,,0.81,VWS V14.01,2013-04-19 13:34:00,
2013-04-19 09:39:00,43.2,39.9,29.71,WSW,243,10.5,19.5,88,0.00,,,0.81,VWS V14.01,2013-04-19 13:39:00,
2013-04-19 09:44:00,43.2,39.9,29.71,WNW,302,12.0,15.0,88,0.00,,,0.81,VWS V14.01,2013-04-19 13:44:00,
2013-04-19 09:49:00,43.2,39.6,29.71,WSW,250,12.0,18.0,87,0.00,,,0.81,VWS V14.01,2013-04-19 13:49:00,
2013-04-19 09:54:00,43.2,39.6,29.71,NW,326,9.0,21.0,87,0.00,,,0.81,VWS V14.01,2013-04-19 13:54:00,
2013-04-19 09:59:00,43.1,39.5,29.72,West,265,7.5,22.5,87,0.00,,,0.81,VWS V14.01,2013-04-19 13:59:00,
2013-04-19 10:04:00,43.0,39.4,29.72,West,281,21.0,27.0,87,0.00,,,0.81,VWS V14.01,2013-04-19 14:04:00,
2013-04-19 10:09:00,42.8,38.6,29.73,West,262,16.5,22.5,85,0.00,,,0.81,VWS V14.01,2013-04-19 14:09:00,
2013-04-19 10:14:00,42.3,38.4,29.73,West,273,12.0,21.0,86,0.00,,,0.81,VWS V14.01,2013-04-19 14:14:00,
2013-04-19 10:19:00,41.9,37.4,29.73,WSW,250,15.0,22.5,84,0.00,,,0.81,VWS V14.01,2013-04-19 14:19:00,
2013-04-19 10:24:00,41.7,37.2,29.74,SW,236,10.5,18.0,84,0.00,,,0.81,VWS V14.01,2013-04-19 14:24:00,
2013-04-19 10:29:00,41.8,37.0,29.73,West,268,15.0,18.0,83,0.00,,,0.81,VWS V14.01,2013-04-19 14:29:00,
2013-04-19 10:34:00,42.1,37.6,29.74,West,268,13.5,16.5,84,0.00,,,0.81,VWS V14.01,2013-04-19 14:34:00,
2013-04-19 10:39:00,42.4,37.9,29.74,WSW,248,10.5,16.5,84,0.00,,,0.81,VWS V14.01,2013-04-19 14:39:00,
2013-04-19 10:44:00,42.6,37.8,29.74,West,264,13.5,13.5,83,0.00,,,0.81,VWS V14.01,2013-04-19 14:44:00,
2013-04-19 10:49:00,43.2,39.0,29.75,West,262,12.0,13.5,85,0.00,,,0.81,VWS V14.01,2013-04-19 14:49:00,
2013-04-19 10:54:00,44.0,39.8,29.74,West,275,12.0,16.5,85,0.00,,,0.81,VWS V14.01,2013-04-19 14:54:00,
2013-04-19 10:59:00,43.8,39.0,29.74,WNW,293,9.0,12.0,83,0.00,,,0.81,VWS V14.01,2013-04-19 14:59:00,
2013-04-19 11:04:00,43.6,38.8,29.75,WNW,296,9.0,13.5,83,0.00,,,0.81,VWS V14.01,2013-04-19 15:04:00,
2013-04-19 11:09:00,43.6,39.4,29.75,West,281,13.5,13.5,85,0.00,,,0.81,VWS V14.01,2013-04-19 15:09:00,
2013-04-19 11:14:00,43.3,38.5,29.75,West,261,13.5,13.5,83,0.00,,,0.81,VWS V14.01,2013-04-19 15:14:00,
2013-04-19 11:19:00,43.5,38.7,29.75,WNW,290,15.0,15.0,83,0.00,,,0.81,VWS V14.01,2013-04-19 15:19:00,
2013-04-19 11:24:00,43.8,38.4,29.76,West,272,6.0,7.5,81,0.00,,,0.81,VWS V14.01,2013-04-19 15:24:00,
2013-04-19 11:29:00,43.7,36.3,29.76,West,268,25.5,25.5,75,0.00,,,0.81,VWS V14.01,2013-04-19 15:29:00,
2013-04-19 11:34:00,43.5,36.8,29.76,WSW,254,18.0,19.5,77,0.00,,,0.81,VWS V14.01,2013-04-19 15:34:00,
2013-04-19 11:39:00,43.4,36.3,29.76,SSW,211,30.0,30.0,76,0.00,,,0.81,VWS V14.01,2013-04-19 15:39:00,
2013-04-19 11:44:00,43.3,36.3,29.76,SSW,195,15.0,21.0,76,0.00,,,0.81,VWS V14.01,2013-04-19 15:44:00,
2013-04-19 11:49:00,43.5,36.5,29.75,West,269,16.5,19.5,76,0.00,,,0.81,VWS V14.01,2013-04-19 15:49:00,
2013-04-19 11:54:00,44.0,36.9,29.76,West,278,16.5,16.5,76,0.00,,,0.81,VWS V14.01,2013-04-19 15:54:00,
2013-04-19 11:59:00,44.3,36.5,29.75,WSW,254,27.0,28.5,74,0.00,,,0.81,VWS V14.01,2013-04-19 15:59:00,
2013-04-19 12:04:00,44.4,36.7,29.76,West,275,18.0,18.0,74,0.00,,,0.81,VWS V14.01,2013-04-19 16:04:00,
2013-04-19 12:09:00,44.4,36.7,29.76,SW,226,34.5,34.5,74,0.00,,,0.81,VWS V14.01,2013-04-19 16:09:00,
2013-04-19 12:14:00,44.0,34.9,29.76,West,278,22.5,22.5,70,0.00,,,0.81,VWS V14.01,2013-04-19 16:14:00,
2013-04-19 12:19:00,44.0,34.9,29.76,West,267,13.5,18.0,70,0.00,,,0.81,VWS V14.01,2013-04-19 16:19:00,
2013-04-19 12:24:00,43.9,34.0,29.76,West,265,22.5,27.0,68,0.00,,,0.81,VWS V14.01,2013-04-19 16:24:00,
2013-04-19 12:29:00,43.8,34.7,29.77,WSW,243,18.0,24.0,70,0.00,,,0.81,VWS V14.01,2013-04-19 16:29:00,
2013-04-19 12:34:00,43.8,34.3,29.76,SW,226,24.0,24.0,69,0.00,,,0.81,VWS V14.01,2013-04-19 16:34:00,
2013-04-19 12:39:00,43.9,34.4,29.77,WSW,250,18.0,18.0,69,0.00,,,0.81,VWS V14.01,2013-04-19 16:39:00,
2013-04-19 12:44:00,44.0,34.9,29.77,WSW,253,12.0,19.5,70,0.00,,,0.81,VWS V14.01,2013-04-19 16:44:00,
2013-04-19 12:49:00,43.9,34.4,29.76,West,260,12.0,13.5,69,0.00,,,0.81,VWS V14.01,2013-04-19 16:49:00,
2013-04-19 12:54:00,43.8,33.9,29.77,WNW,288,15.0,15.0,68,0.00,,,0.81,VWS V14.01,2013-04-19 16:54:00,
2013-04-19 12:59:00,43.8,34.3,29.76,WNW,299,9.0,16.5,69,0.00,,,0.81,VWS V14.01,2013-04-19 16:59:00,
2013-04-19 13:04:00,43.7,34.6,29.77,West,272,10.5,18.0,70,0.00,,,0.81,VWS V14.01,2013-04-19 17:04:00,
2013-04-19 13:09:00,43.9,34.8,29.77,WNW,288,13.5,18.0,70,0.00,,,0.81,VWS V14.01,2013-04-19 17:09:00,
2013-04-19 13:14:00,43.9,34.8,29.78,WNW,286,21.0,21.0,70,0.00,,,0.81,VWS V14.01,2013-04-19 17:14:00,
2013-04-19 13:19:00,44.2,35.4,29.78,West,274,18.0,18.0,71,0.00,,,0.81,VWS V14.01,2013-04-19 17:19:00,
2013-04-19 13:24:00,44.1,35.0,29.79,WSW,240,12.0,21.0,70,0.00,,,0.81,VWS V14.01,2013-04-19 17:24:00,
2013-04-19 13:29:00,44.1,35.7,29.79,WSW,250,13.5,18.0,72,0.00,,,0.81,VWS V14.01,2013-04-19 17:29:00,
2013-04-19 13:34:00,44.0,35.2,29.79,West,263,6.0,15.0,71,0.00,,,0.81,VWS V14.01,2013-04-19 17:34:00,
2013-04-19 13:39:00,44.1,35.3,29.79,West,276,13.5,16.5,71,0.00,,,0.81,VWS V14.01,2013-04-19 17:39:00,
2013-04-19 13:44:00,43.9,35.1,29.79,WNW,288,18.0,19.5,71,0.00,,,0.81,VWS V14.01,2013-04-19 17:44:00,
2013-04-19 13:49:00,43.8,35.4,29.80,WNW,288,10.5,21.0,72,0.00,,,0.81,VWS V14.01,2013-04-19 17:49:00,
2013-04-19 13:54:00,43.8,35.4,29.80,NW,304,15.0,21.0,72,0.00,,,0.81,VWS V14.01,2013-04-19 17:54:00,
2013-04-19 13:59:00,43.9,35.5,29.79,West,274,10.5,12.0,72,0.00,,,0.81,VWS V14.01,2013-04-19 17:59:00,
2013-04-19 14:03:00,44.1,35.7,29.80,WSW,251,15.0,18.0,72,0.00,,,0.81,VWS V14.01,2013-04-19 18:03:00,
2013-04-19 14:08:00,44.4,36.0,29.80,WNW,288,10.5,16.5,72,0.00,,,0.81,VWS V14.01,2013-04-19 18:08:00,
2013-04-19 14:13:00,44.3,35.5,29.80,West,281,9.0,10.5,71,0.00,,,0.81,VWS V14.01,2013-04-19 18:13:00,
2013-04-19 14:18:00,44.3,35.5,29.79,West,275,12.0,15.0,71,0.00,,,0.81,VWS V14.01,2013-04-19 18:18:00,
2013-04-19 14:23:00,44.5,35.3,29.80,West,264,7.5,13.5,70,0.00,,,0.81,VWS V14.01,2013-04-19 18:23:00,
2013-04-19 14:28:00,44.9,35.7,29.79,WSW,256,19.5,19.5,70,0.00,,,0.81,VWS V14.01,2013-04-19 18:28:00,
2013-04-19 14:33:00,45.0,35.8,29.80,West,281,7.5,18.0,70,0.00,,,0.81,VWS V14.01,2013-04-19 18:33:00,
2013-04-19 14:38:00,45.7,35.8,29.79,West,260,7.5,15.0,68,0.00,,,0.81,VWS V14.01,2013-04-19 18:38:00,
2013-04-19 14:43:00,46.1,35.8,29.79,WSW,251,16.5,18.0,67,0.00,,,0.81,VWS V14.01,2013-04-19 18:43:00,
2013-04-19 14:48:00,46.2,34.3,29.79,WSW,246,25.5,30.0,63,0.00,,,0.81,VWS V14.01,2013-04-19 18:48:00,
2013-04-19 14:53:00,46.1,33.8,29.79,WSW,254,18.0,27.0,62,0.00,,,0.81,VWS V14.01,2013-04-19 18:53:00,
2013-04-19 14:58:00,46.2,34.7,29.79,WSW,248,27.0,27.0,64,0.00,,,0.81,VWS V14.01,2013-04-19 18:58:00,
2013-04-19 15:03:00,46.6,34.7,29.79,WSW,250,21.0,28.5,63,0.00,,,0.81,VWS V14.01,2013-04-19 19:03:00,
2013-04-19 15:08:00,46.6,34.3,29.79,WSW,243,19.5,19.5,62,0.00,,,0.81,VWS V14.01,2013-04-19 19:08:00,
2013-04-19 15:13:00,46.8,33.7,29.79,NW,310,22.5,25.5,60,0.00,,,0.81,VWS V14.01,2013-04-19 19:13:00,
2013-04-19 15:18:00,46.8,34.1,29.80,WNW,282,25.5,25.5,61,0.00,,,0.81,VWS V14.01,2013-04-19 19:18:00,
2013-04-19 15:23:00,46.7,34.0,29.79,WNW,285,16.5,19.5,61,0.00,,,0.81,VWS V14.01,2013-04-19 19:23:00,
2013-04-19 15:28:00,46.7,34.0,29.80,WNW,284,16.5,22.5,61,0.00,,,0.81,VWS V14.01,2013-04-19 19:28:00,
2013-04-19 15:33:00,46.4,33.3,29.80,West,275,12.0,22.5,60,0.00,,,0.81,VWS V14.01,2013-04-19 19:33:00,
2013-04-19 15:38:00,46.3,33.6,29.80,SW,222,24.0,28.5,61,0.00,,,0.81,VWS V14.01,2013-04-19 19:38:00,
2013-04-19 15:43:00,46.3,33.6,29.80,West,261,13.5,19.5,61,0.00,,,0.81,VWS V14.01,2013-04-19 19:43:00,
2013-04-19 15:48:00,46.3,34.0,29.80,NW,313,18.0,22.5,62,0.00,,,0.81,VWS V14.01,2013-04-19 19:48:00,
2013-04-19 15:53:00,46.3,34.0,29.80,West,281,15.0,24.0,62,0.00,,,0.81,VWS V14.01,2013-04-19 19:53:00,
2013-04-19 15:58:00,46.2,33.9,29.80,WNW,300,12.0,30.0,62,0.00,,,0.81,VWS V14.01,2013-04-19 19:58:00,
2013-04-19 16:03:00,46.0,34.1,29.80,West,261,13.5,19.5,63,0.00,,,0.81,VWS V14.01,2013-04-19 20:03:00,
2013-04-19 16:08:00,46.0,34.5,29.80,SW,236,12.0,12.0,64,0.00,,,0.81,VWS V14.01,2013-04-19 20:08:00,
2013-04-19 16:13:00,45.9,34.0,29.80,West,267,16.5,22.5,63,0.00,,,0.81,VWS V14.01,2013-04-19 20:13:00,
2013-04-19 16:18:00,46.0,34.1,29.80,WSW,244,9.0,10.5,63,0.00,,,0.81,VWS V14.01,2013-04-19 20:18:00,
2013-04-19 16:23:00,46.1,34.2,29.80,WNW,293,13.5,16.5,63,0.00,,,0.81,VWS V14.01,2013-04-19 20:23:00,
2013-04-19 16:28:00,46.0,34.1,29.80,WSW,250,12.0,18.0,63,0.00,,,0.81,VWS V14.01,2013-04-19 20:28:00,
2013-04-19 16:33:00,46.0,34.1,29.80,WSW,250,18.0,19.5,63,0.00,,,0.81,VWS V14.01,2013-04-19 20:33:00,
2013-04-19 16:38:00,46.1,35.0,29.80,West,276,15.0,15.0,65,0.00,,,0.81,VWS V14.01,2013-04-19 20:38:00,
2013-04-19 16:43:00,46.2,33.9,29.81,WSW,250,13.5,15.0,62,0.00,,,0.81,VWS V14.01,2013-04-19 20:43:00,
2013-04-19 16:48:00,46.1,34.2,29.81,WSW,246,18.0,19.5,63,0.00,,,0.81,VWS V14.01,2013-04-19 20:48:00,
2013-04-19 16:53:00,46.1,34.2,29.81,West,262,15.0,18.0,63,0.00,,,0.81,VWS V14.01,2013-04-19 20:53:00,
2013-04-19 16:58:00,46.1,34.6,29.81,West,269,7.5,19.5,64,0.00,,,0.81,VWS V14.01,2013-04-19 20:58:00,
2013-04-19 17:03:00,46.0,34.5,29.82,WSW,258,16.5,21.0,64,0.00,,,0.81,VWS V14.01,2013-04-19 21:03:00,
2013-04-19 17:08:00,46.1,35.0,29.82,WSW,237,15.0,15.0,65,0.00,,,0.81,VWS V14.01,2013-04-19 21:08:00,
2013-04-19 17:13:00,46.1,34.2,29.82,WSW,256,16.5,21.0,63,0.00,,,0.81,VWS V14.01,2013-04-19 21:13:00,
2013-04-19 17:18:00,46.5,34.6,29.82,WSW,251,9.0,12.0,63,0.00,,,0.81,VWS V14.01,2013-04-19 21:18:00,
2013-04-19 17:23:00,46.7,34.4,29.82,West,269,13.5,16.5,62,0.00,,,0.81,VWS V14.01,2013-04-19 21:23:00,
2013-04-19 17:28:00,46.7,34.4,29.83,WSW,250,15.0,15.0,62,0.00,,,0.81,VWS V14.01,2013-04-19 21:28:00,
2013-04-19 17:33:00,46.9,34.6,29.83,WSW,258,10.5,12.0,62,0.00,,,0.81,VWS V14.01,2013-04-19 21:33:00,
2013-04-19 17:38:00,46.9,34.2,29.83,West,265,9.0,10.5,61,0.00,,,0.81,VWS V14.01,2013-04-19 21:38:00,
2013-04-19 17:43:00,47.0,34.3,29.83,WNW,295,10.5,16.5,61,0.00,,,0.81,VWS V14.01,2013-04-19 21:43:00,
2013-04-19 17:48:00,47.1,34.4,29.83,West,267,9.0,10.5,61,0.00,,,0.81,VWS V14.01,2013-04-19 21:48:00,
2013-04-19 17:53:00,46.9,34.2,29.84,West,264,9.0,16.5,61,0.00,,,0.81,VWS V14.01,2013-04-19 21:53:00,
2013-04-19 17:58:00,46.7,33.6,29.84,WSW,249,16.5,19.5,60,0.00,,,0.81,VWS V14.01,2013-04-19 21:58:00,
2013-04-19 18:03:00,46.7,33.6,29.85,West,276,10.5,13.5,60,0.00,,,0.81,VWS V14.01,2013-04-19 22:03:00,
2013-04-19 18:08:00,46.7,34.0,29.85,SW,220,12.0,12.0,61,0.00,,,0.81,VWS V14.01,2013-04-19 22:08:00,
2013-04-19 18:13:00,46.7,34.0,29.85,WSW,254,13.5,16.5,61,0.00,,,0.81,VWS V14.01,2013-04-19 22:13:00,
2013-04-19 18:18:00,46.7,34.4,29.86,WNW,288,9.0,12.0,62,0.00,,,0.81,VWS V14.01,2013-04-19 22:18:00,
2013-04-19 18:23:00,46.6,33.9,29.86,West,265,9.0,18.0,61,0.00,,,0.81,VWS V14.01,2013-04-19 22:23:00,
2013-04-19 18:28:00,46.5,33.4,29.86,West,267,9.0,18.0,60,0.00,,,0.81,VWS V14.01,2013-04-19 22:28:00,
2013-04-19 18:33:00,46.4,34.1,29.87,WSW,242,16.5,16.5,62,0.00,,,0.81,VWS V14.01,2013-04-19 22:33:00,
2013-04-19 18:38:00,46.2,33.5,29.87,West,279,18.0,19.5,61,0.00,,,0.81,VWS V14.01,2013-04-19 22:38:00,
2013-04-19 18:43:00,46.1,33.4,29.87,WSW,255,13.5,15.0,61,0.00,,,0.81,VWS V14.01,2013-04-19 22:43:00,
2013-04-19 18:48:00,45.9,33.2,29.87,WSW,248,25.5,25.5,61,0.00,,,0.81,VWS V14.01,2013-04-19 22:48:00,
2013-04-19 18:53:00,45.9,33.6,29.87,West,260,18.0,18.0,62,0.00,,,0.81,VWS V14.01,2013-04-19 22:53:00,
2013-04-19 18:58:00,45.7,33.8,29.87,West,279,10.5,10.5,63,0.00,,,0.81,VWS V14.01,2013-04-19 22:58:00,
2013-04-19 19:03:00,45.7,33.8,29.88,WSW,242,13.5,13.5,63,0.00,,,0.81,VWS V14.01,2013-04-19 23:03:00,
2013-04-19 19:08:00,45.6,33.8,29.88,West,279,12.0,18.0,63,0.00,,,0.81,VWS V14.01,2013-04-19 23:08:00,
2013-04-19 19:13:00,45.4,34.0,29.88,WSW,246,24.0,24.0,64,0.00,,,0.81,VWS V14.01,2013-04-19 23:13:00,
2013-04-19 19:18:00,45.2,34.2,29.88,WSW,248,18.0,21.0,65,0.00,,,0.81,VWS V14.01,2013-04-19 23:18:00,
2013-04-19 19:23:00,45.1,34.0,29.88,West,269,10.5,12.0,65,0.00,,,0.81,VWS V14.01,2013-04-19 23:23:00,
2013-04-19 19:28:00,45.0,33.6,29.88,WNW,284,15.0,21.0,64,0.00,,,0.81,VWS V14.01,2013-04-19 23:28:00,
2013-04-19 19:33:00,45.0,34.0,29.89,WNW,290,9.0,10.5,65,0.00,,,0.81,VWS V14.01,2013-04-19 23:33:00,
2013-04-19 19:38:00,45.0,33.6,29.89,West,269,10.5,10.5,64,0.00,,,0.81,VWS V14.01,2013-04-19 23:38:00,
2013-04-19 19:43:00,45.0,33.6,29.89,West,277,9.0,12.0,64,0.00,,,0.81,VWS V14.01,2013-04-19 23:43:00,
2013-04-19 19:48:00,44.9,33.9,29.89,West,269,6.0,9.0,65,0.00,,,0.81,VWS V14.01,2013-04-19 23:48:00,
2013-04-19 19:53:00,44.9,33.5,29.89,WNW,299,6.0,9.0,64,0.00,,,0.81,VWS V14.01,2013-04-19 23:53:00,
2013-04-19 19:58:00,44.9,33.5,29.90,West,281,15.0,15.0,64,0.00,,,0.81,VWS V14.01,2013-04-19 23:58:00,
2013-04-19 20:03:00,44.8,33.4,29.90,WSW,250,7.5,13.5,64,0.00,,,0.81,VWS V14.01,2013-04-20 00:03:00,
2013-04-19 20:08:00,44.7,33.3,29.90,WNW,282,12.0,13.5,64,0.00,,,0.81,VWS V14.01,2013-04-20 00:08:00,
2013-04-19 20:13:00,44.7,33.3,29.90,West,262,7.5,15.0,64,0.00,,,0.81,VWS V14.01,2013-04-20 00:13:00,
2013-04-19 20:18:00,44.6,33.6,29.90,West,281,15.0,15.0,65,0.00,,,0.81,VWS V14.01,2013-04-20 00:18:00,
2013-04-19 20:23:00,44.5,33.5,29.91,WSW,255,9.0,15.0,65,0.00,,,0.81,VWS V14.01,2013-04-20 00:23:00,
2013-04-19 20:28:00,44.4,33.4,29.91,WNW,290,7.5,19.5,65,0.00,,,0.81,VWS V14.01,2013-04-20 00:28:00,
2013-04-19 20:33:00,44.4,33.8,29.92,West,276,12.0,13.5,66,0.00,,,0.81,VWS V14.01,2013-04-20 00:33:00,
2013-04-19 20:38:00,44.4,33.8,29.92,WNW,284,7.5,7.5,66,0.00,,,0.81,VWS V14.01,2013-04-20 00:38:00,
2013-04-19 20:43:00,44.3,33.7,29.92,WNW,299,4.5,10.5,66,0.00,,,0.81,VWS V14.01,2013-04-20 00:43:00,
2013-04-19 20:48:00,44.3,33.7,29.92,West,278,12.0,12.0,66,0.00,,,0.81,VWS V14.01,2013-04-20 00:48:00,
2013-04-19 20:53:00,44.3,33.7,29.93,West,269,21.0,21.0,66,0.00,,,0.81,VWS V14.01,2013-04-20 00:53:00,
2013-04-19 20:58:00,44.3,34.0,29.93,West,267,9.0,10.5,67,0.00,,,0.81,VWS V14.01,2013-04-20 00:58:00,
2013-04-19 21:03:00,44.2,34.0,29.93,WNW,288,9.0,13.5,67,0.00,,,0.81,VWS V14.01,2013-04-20 01:03:00,
2013-04-19 21:08:00,44.0,34.1,29.93,West,268,24.0,30.0,68,0.00,,,0.81,VWS V14.01,2013-04-20 01:08:00,
2013-04-19 21:13:00,43.6,34.8,29.94,WNW,282,21.0,21.0,71,0.00,,,0.81,VWS V14.01,2013-04-20 01:13:00,
2013-04-19 21:18:00,42.8,35.4,29.95,NW,307,10.5,12.0,75,0.00,,,0.81,VWS V14.01,2013-04-20 01:18:00,
2013-04-19 21:23:00,42.1,35.8,29.95,WNW,284,10.5,12.0,78,0.00,,,0.81,VWS V14.01,2013-04-20 01:23:00,
2013-04-19 21:28:00,41.8,35.5,29.95,West,274,9.0,10.5,78,0.00,,,0.81,VWS V14.01,2013-04-20 01:28:00,
2013-04-19 21:33:00,41.7,35.4,29.95,West,264,6.0,9.0,78,0.00,,,0.81,VWS V14.01,2013-04-20 01:33:00,
2013-04-19 21:38:00,41.8,35.5,29.95,West,261,6.0,6.0,78,0.00,,,0.81,VWS V14.01,2013-04-20 01:38:00,
2013-04-19 21:43:00,41.9,35.5,29.95,West,279,7.5,9.0,78,0.00,,,0.81,VWS V14.01,2013-04-20 01:43:00,
2013-04-19 21:48:00,42.0,35.7,29.95,WSW,257,7.5,9.0,78,0.00,,,0.81,VWS V14.01,2013-04-20 01:48:00,
2013-04-19 21:53:00,42.0,35.3,29.95,WSW,255,9.0,9.0,77,0.00,,,0.81,VWS V14.01,2013-04-20 01:53:00,
2013-04-19 21:58:00,42.1,35.1,29.96,SW,234,12.0,18.0,76,0.00,,,0.81,VWS V14.01,2013-04-20 01:58:00,
2013-04-19 22:03:00,42.2,35.2,29.96,WSW,248,6.0,6.0,76,0.00,,,0.81,VWS V14.01,2013-04-20 02:03:00,
2013-04-19 22:08:00,42.1,35.1,29.96,WSW,243,4.5,6.0,76,0.00,,,0.81,VWS V14.01,2013-04-20 02:08:00,
2013-04-19 22:13:00,41.9,34.9,29.96,SW,231,6.0,6.0,76,0.00,,,0.81,VWS V14.01,2013-04-20 02:13:00,
2013-04-19 22:18:00,41.7,34.7,29.97,WSW,250,6.0,7.5,76,0.00,,,0.81,VWS V14.01,2013-04-20 02:18:00,
2013-04-19 22:23:00,41.6,34.6,29.97,SW,229,6.0,6.0,76,0.00,,,0.81,VWS V14.01,2013-04-20 02:23:00,
2013-04-19 22:28:00,41.4,34.7,29.97,WSW,255,6.0,6.0,77,0.00,,,0.81,VWS V14.01,2013-04-20 02:28:00,
2013-04-19 22:33:00,41.3,34.7,29.98,West,275,9.0,9.0,77,0.00,,,0.81,VWS V14.01,2013-04-20 02:33:00,
2013-04-19 22:38:00,41.4,34.7,29.98,WSW,250,3.0,6.0,77,0.00,,,0.81,VWS V14.01,2013-04-20 02:38:00,
2013-04-19 22:43:00,41.3,34.3,29.98,SW,230,10.5,10.5,76,0.00,,,0.81,VWS V14.01,2013-04-20 02:43:00,
2013-04-19 22:48:00,41.3,34.3,29.98,SW,234,7.5,7.5,76,0.00,,,0.81,VWS V14.01,2013-04-20 02:48:00,
2013-04-19 22:53:00,41.2,34.2,29.98,West,265,4.5,4.5,76,0.00,,,0.81,VWS V14.01,2013-04-20 02:53:00,
2013-04-19 22:58:00,41.0,34.3,29.98,SW,235,4.5,4.5,77,0.00,,,0.81,VWS V14.01,2013-04-20 02:58:00,
2013-04-19 23:03:00,40.8,34.2,29.98,WSW,251,6.0,6.0,77,0.00,,,0.81,VWS V14.01,2013-04-20 03:03:00,
2013-04-19 23:08:00,40.7,34.4,29.99,West,261,3.0,4.5,78,0.00,,,0.81,VWS V14.01,2013-04-20 03:08:00,
2013-04-19 23:13:00,40.5,34.2,29.99,SW,236,4.5,4.5,78,0.00,,,0.81,VWS V14.01,2013-04-20 03:13:00,
2013-04-19 23:18:00,40.3,34.3,29.99,SW,215,3.0,3.0,79,0.00,,,0.81,VWS V14.01,2013-04-20 03:18:00,
2013-04-19 23:23:00,40.2,34.2,29.99,WSW,247,3.0,6.0,79,0.00,,,0.81,VWS V14.01,2013-04-20 03:23:00,
2013-04-19 23:28:00,39.9,33.9,29.99,WSW,248,4.5,4.5,79,0.00,,,0.81,VWS V14.01,2013-04-20 03:28:00,
2013-04-19 23:33:00,39.8,34.1,29.99,WSW,258,3.0,4.5,80,0.00,,,0.81,VWS V14.01,2013-04-20 03:33:00,
2013-04-19 23:38:00,39.7,34.0,29.99,SW,236,1.5,3.0,80,0.00,,,0.81,VWS V14.01,2013-04-20 03:38:00,
2013-04-19 23:43:00,39.7,34.0,30.00,WSW,248,6.0,7.5,80,0.00,,,0.81,VWS V14.01,2013-04-20 03:43:00,
2013-04-19 23:48:00,39.9,33.9,30.00,SW,230,7.5,9.0,79,0.00,,,0.81,VWS V14.01,2013-04-20 03:48:00,
2013-04-19 23:53:00,39.9,33.9,30.00,West,260,1.5,1.5,79,0.00,,,0.81,VWS V14.01,2013-04-20 03:53:00,
2013-04-19 23:58:00,39.9,33.9,30.00,SW,226,3.0,4.5,79,0.00,,,0.81,VWS V14.01,2013-04-20 03:58:00,